Time;durP1;ratioP1;P1;durP2;ratioP2;P2;SDS_P1;SDS_P2;PMS_P1;PMS_P2;Temp;Humidity;BMP_temperature;BMP_pressure;BME280_temperature;BME280_humidity;BME280_pressure;Samples;Min_cycle;Max_cycle;Signal;HPM_P1;HPM_P2
2021/04/10 00:00:24;;;;;;;1.20;0.88;;;11.70;72.70;;;;;;5115605;28;20048;-45
2021/04/10 00:02:51;;;;;;;1.48;0.88;;;11.70;72.70;;;;;;5115265;28;20480;-40
2021/04/10 00:05:20;;;;;;;1.58;0.70;;;11.70;72.70;;;;;;5115798;28;20066;-43
2021/04/10 00:07:47;;;;;;;1.85;0.77;;;11.70;72.60;;;;;;5115763;28;20055;-46
2021/04/10 00:10:13;;;;;;;1.95;0.95;;;11.70;72.70;;;;;;5115451;28;20502;-44
2021/04/10 00:12:40;;;;;;;1.50;1.05;;;11.70;72.60;;;;;;5115425;28;20047;-41
2021/04/10 00:15:09;;;;;;;2.55;1.00;;;11.70;72.70;;;;;;5115607;28;20045;-44
2021/04/10 00:17:35;;;;;;;1.02;0.85;;;11.70;72.70;;;;;;5115221;28;20050;-43
2021/04/10 00:20:01;;;;;;;1.13;1.00;;;11.70;72.70;;;;;;5115135;28;20040;-42
2021/04/10 00:22:26;;;;;;;0.95;0.85;;;11.70;72.60;;;;;;5115263;27;20097;-41
2021/04/10 00:24:52;;;;;;;0.85;0.73;;;11.70;72.60;;;;;;5115359;28;20373;-42
2021/04/10 00:27:18;;;;;;;1.20;1.10;;;11.70;72.60;;;;;;5113740;28;20055;-41
2021/04/10 00:29:44;;;;;;;1.35;0.90;;;11.70;72.60;;;;;;5114737;28;20040;-42
2021/04/10 00:32:09;;;;;;;0.88;0.70;;;11.70;72.70;;;;;;5115388;28;20043;-42
2021/04/10 00:34:35;;;;;;;1.55;0.93;;;11.70;72.60;;;;;;5114937;28;20403;-43
2021/04/10 00:37:01;;;;;;;1.73;0.90;;;11.70;72.60;;;;;;5115124;28;20126;-43
2021/04/10 00:39:26;;;;;;;1.58;0.82;;;11.70;72.60;;;;;;5114643;28;20044;-43
2021/04/10 00:41:52;;;;;;;2.33;1.48;;;11.70;72.60;;;;;;5114365;28;20036;-41
2021/04/10 00:44:18;;;;;;;1.27;0.75;;;11.70;72.60;;;;;;5114342;28;20492;-43
2021/04/10 00:46:43;;;;;;;0.88;0.82;;;11.70;72.60;;;;;;5114550;28;20055;-44
2021/04/10 00:49:09;;;;;;;1.13;0.70;;;11.70;72.60;;;;;;5114594;28;20130;-42
2021/04/10 00:51:35;;;;;;;2.10;0.88;;;11.70;72.60;;;;;;5114567;28;20588;-41
2021/04/10 00:54:01;;;;;;;1.02;0.85;;;11.70;72.60;;;;;;5112909;28;20036;-43
2021/04/10 00:56:27;;;;;;;1.75;0.80;;;11.70;72.60;;;;;;5114195;28;20112;-42
2021/04/10 00:58:53;;;;;;;1.17;0.88;;;11.70;72.60;;;;;;5114523;28;20483;-41
2021/04/10 01:01:18;;;;;;;1.20;0.77;;;11.70;72.60;;;;;;5114571;28;20043;-41
2021/04/10 01:03:44;;;;;;;2.40;1.38;;;11.70;72.60;;;;;;5114282;28;20040;-41
2021/04/10 01:06:11;;;;;;;1.58;1.05;;;11.70;72.60;;;;;;5114310;28;20130;-43
2021/04/10 01:08:38;;;;;;;1.73;1.30;;;11.70;72.60;;;;;;5114029;28;20046;-41
2021/04/10 01:11:27;;;;;;;1.10;0.80;;;11.70;72.60;;;;;;5114062;28;20048;-43
2021/04/10 01:14:08;;;;;;;1.65;1.02;;;11.70;72.60;;;;;;5112524;28;20128;-42
2021/04/10 01:16:41;;;;;;;1.55;0.73;;;11.70;72.60;;;;;;5112046;28;20039;-41
2021/04/10 01:19:39;;;;;;;1.55;1.13;;;11.70;72.60;;;;;;5114205;28;20138;-40
2021/04/10 01:22:30;;;;;;;0.93;0.70;;;11.70;72.60;;;;;;5113399;28;20380;-43
2021/04/10 01:24:55;;;;;;;1.30;0.70;;;11.70;72.60;;;;;;5111961;28;20483;-42
2021/04/10 01:27:55;;;;;;;1.13;0.68;;;11.70;72.60;;;;;;5113738;28;20051;-41
2021/04/10 01:30:22;;;;;;;1.10;0.73;;;11.70;72.60;;;;;;5113181;28;20044;-43
2021/04/10 01:33:06;;;;;;;1.85;1.20;;;11.70;72.60;;;;;;5111039;28;20122;-44
2021/04/10 01:35:38;;;;;;;1.85;1.02;;;11.70;72.60;;;;;;5111608;28;20039;-44
2021/04/10 01:38:13;;;;;;;0.77;0.70;;;11.70;72.60;;;;;;5113479;28;20078;-46
2021/04/10 01:40:39;;;;;;;2.17;0.90;;;11.70;72.60;;;;;;5113327;28;20045;-41
2021/04/10 01:43:06;;;;;;;1.63;0.85;;;11.70;72.60;;;;;;5113202;28;20145;-42
2021/04/10 01:45:33;;;;;;;1.63;0.80;;;11.70;72.60;;;;;;5113103;27;20488;-44
2021/04/10 01:48:08;;;;;;;1.58;0.80;;;11.70;72.60;;;;;;5113313;28;20040;-47
2021/04/10 01:50:35;;;;;;;1.70;1.00;;;11.70;72.60;;;;;;5111644;28;20100;-45
2021/04/10 01:53:02;;;;;;;1.65;0.80;;;11.60;72.60;;;;;;5113641;28;20074;-46
2021/04/10 01:55:29;;;;;;;1.15;0.65;;;11.70;72.70;;;;;;5113224;28;20134;-42
2021/04/10 01:57:55;;;;;;;1.73;0.70;;;11.70;72.60;;;;;;5113288;28;20078;-43
2021/04/10 02:00:24;;;;;;;1.25;0.77;;;11.70;72.70;;;;;;5113094;28;20043;-40
2021/04/10 02:02:51;;;;;;;1.33;1.05;;;11.70;72.60;;;;;;5110844;28;20050;-42
2021/04/10 02:05:17;;;;;;;0.95;0.77;;;11.70;72.60;;;;;;5113316;28;20072;-43
2021/04/10 02:07:46;;;;;;;1.63;0.90;;;11.70;72.60;;;;;;5112512;28;20075;-43
2021/04/10 02:10:18;;;;;;;0.85;0.80;;;11.60;72.60;;;;;;5111094;28;20054;-44
2021/04/10 02:12:46;;;;;;;0.90;0.68;;;11.70;72.60;;;;;;5112829;28;20118;-39
2021/04/10 02:15:13;;;;;;;1.20;0.70;;;11.70;72.60;;;;;;5113073;28;20054;-41
2021/04/10 02:17:39;;;;;;;0.73;0.70;;;11.70;72.60;;;;;;5112914;28;20476;-40
2021/04/10 02:20:11;;;;;;;3.05;0.70;;;11.70;72.60;;;;;;5112968;28;20047;-40
2021/04/10 02:22:38;;;;;;;1.15;0.95;;;11.70;72.60;;;;;;5112885;28;20048;-40
2021/04/10 02:25:05;;;;;;;1.45;0.85;;;11.70;72.60;;;;;;5112998;28;20490;-42
2021/04/10 02:27:31;;;;;;;1.77;1.00;;;11.70;72.60;;;;;;5112708;28;20043;-41
2021/04/10 02:29:59;;;;;;;1.67;1.00;;;11.70;72.60;;;;;;5112785;28;20496;-40
2021/04/10 02:32:34;;;;;;;1.67;0.82;;;11.60;73.20;;;;;;5112701;28;20075;-42
2021/04/10 02:35:29;;;;;;;1.42;1.00;;;11.70;72.60;;;;;;5113017;28;20093;-41
2021/04/10 02:37:56;;;;;;;1.23;0.70;;;11.60;72.60;;;;;;5098781;28;20107;-41
2021/04/10 02:40:24;;;;;;;1.70;0.85;;;11.60;72.60;;;;;;5112693;28;20044;-43
2021/04/10 02:42:50;;;;;;;1.50;0.68;;;11.60;72.60;;;;;;5110247;28;20036;-41
2021/04/10 02:45:23;;;;;;;1.60;0.80;;;11.60;72.60;;;;;;5112427;28;20051;-43
2021/04/10 02:47:50;;;;;;;2.00;0.90;;;11.60;72.60;;;;;;5109789;28;20096;-41
2021/04/10 02:50:21;;;;;;;1.00;0.60;;;11.60;72.60;;;;;;5117037;28;20039;-40
2021/04/10 02:52:54;;;;;;;1.23;0.70;;;11.70;72.60;;;;;;5119447;27;20072;-42
2021/04/10 02:55:36;;;;;;;2.00;0.93;;;11.60;72.60;;;;;;5118921;27;20047;-45
2021/04/10 02:58:05;;;;;;;4.60;1.20;;;11.60;72.60;;;;;;5118970;28;20047;-43
2021/04/10 03:00:32;;;;;;;1.40;0.75;;;11.60;72.60;;;;;;5116817;28;20040;-46
2021/04/10 03:03:01;;;;;;;1.65;0.70;;;11.60;72.60;;;;;;5119170;28;20122;-45
2021/04/10 03:05:27;;;;;;;0.80;0.75;;;11.60;72.60;;;;;;5114688;28;20040;-40
2021/04/10 03:07:53;;;;;;;2.08;0.88;;;11.60;72.60;;;;;;5118834;28;20050;-44
2021/04/10 03:10:20;;;;;;;2.00;1.13;;;11.60;72.60;;;;;;5119703;28;20051;-45
2021/04/10 03:12:47;;;;;;;1.13;1.02;;;11.60;72.50;;;;;;5117970;28;20089;-43
2021/04/10 03:15:15;;;;;;;1.42;0.80;;;11.60;72.50;;;;;;5119102;28;20047;-40
2021/04/10 03:17:41;;;;;;;1.95;0.90;;;11.70;72.60;;;;;;5118867;27;20067;-41
2021/04/10 03:20:13;;;;;;;2.72;0.95;;;11.60;72.60;;;;;;5119379;28;20040;-41
2021/04/10 03:22:48;;;;;;;1.65;0.88;;;11.60;72.60;;;;;;5118966;27;20041;-43
2021/04/10 03:25:15;;;;;;;0.88;0.57;;;11.60;72.60;;;;;;5116844;28;20047;-40
2021/04/10 03:27:42;;;;;;;1.27;0.82;;;11.70;72.60;;;;;;5119188;28;20084;-43
2021/04/10 03:30:10;;;;;;;0.60;0.40;;;11.60;72.60;;;;;;5119011;27;20039;-43
2021/04/10 03:32:37;;;;;;;1.10;0.77;;;11.60;72.50;;;;;;5118788;27;20536;-43
2021/04/10 03:35:03;;;;;;;1.45;0.70;;;11.60;72.60;;;;;;5118934;27;20071;-40
2021/04/10 03:37:29;;;;;;;1.23;0.63;;;11.60;72.60;;;;;;5116155;28;20042;-41
2021/04/10 03:39:56;;;;;;;1.42;0.73;;;11.60;72.50;;;;;;5119082;28;20039;-39
2021/04/10 03:42:35;;;;;;;1.02;0.90;;;11.60;72.60;;;;;;5118989;27;20052;-42
2021/04/10 03:45:02;;;;;;;3.22;1.50;;;11.60;73.20;;;;;;5118014;28;20063;-43
2021/04/10 03:47:28;;;;;;;1.38;1.10;;;11.60;72.50;;;;;;5118036;28;20115;-43
2021/04/10 03:49:54;;;;;;;0.93;0.60;;;11.60;72.60;;;;;;5118698;28;20166;-40
2021/04/10 03:52:19;;;;;;;2.15;0.73;;;11.60;72.50;;;;;;5119129;28;20050;-40
2021/04/10 03:54:45;;;;;;;1.50;0.77;;;11.60;72.50;;;;;;5118797;28;20048;-43
2021/04/10 03:57:10;;;;;;;1.00;0.80;;;11.60;72.60;;;;;;5118472;28;20403;-41
2021/04/10 03:59:37;;;;;;;1.60;0.60;;;11.60;72.60;;;;;;5118866;28;20122;-41
2021/04/10 04:02:02;;;;;;;2.33;0.82;;;11.60;72.50;;;;;;5115084;28;20119;-40
2021/04/10 04:04:28;;;;;;;1.08;0.70;;;11.60;72.60;;;;;;5115448;28;20051;-41
2021/04/10 04:06:54;;;;;;;1.20;0.73;;;11.60;72.50;;;;;;5115311;28;20122;-42
2021/04/10 04:09:19;;;;;;;0.80;0.77;;;11.60;72.50;;;;;;5115711;28;20046;-39
2021/04/10 04:11:45;;;;;;;0.93;0.60;;;11.60;72.60;;;;;;5115427;28;20039;-43
2021/04/10 04:14:11;;;;;;;1.52;0.73;;;11.60;72.60;;;;;;5115084;28;20050;-43
2021/04/10 04:16:37;;;;;;;2.25;0.80;;;11.60;72.60;;;;;;5115569;28;20047;-42
2021/04/10 04:19:02;;;;;;;1.48;1.20;;;11.60;72.50;;;;;;5114802;28;20048;-43
2021/04/10 04:21:28;;;;;;;1.40;0.77;;;11.60;72.50;;;;;;5115008;28;20036;-40
2021/04/10 04:23:54;;;;;;;0.88;0.60;;;11.60;72.50;;;;;;5115132;28;20046;-43
2021/04/10 04:26:19;;;;;;;0.80;0.80;;;11.60;72.50;;;;;;5114956;28;20050;-42
2021/04/10 04:28:45;;;;;;;1.27;0.70;;;11.60;72.60;;;;;;5114933;28;20039;-41
2021/04/10 04:31:10;;;;;;;1.92;0.93;;;11.60;72.50;;;;;;5115000;28;20046;-43
2021/04/10 04:33:36;;;;;;;0.93;0.70;;;11.60;72.60;;;;;;5114990;28;20036;-43
2021/04/10 04:36:02;;;;;;;0.75;0.60;;;11.60;72.50;;;;;;5114494;28;20047;-40
2021/04/10 04:38:28;;;;;;;1.20;0.70;;;11.60;72.50;;;;;;5114669;28;20499;-44
2021/04/10 04:40:53;;;;;;;1.85;0.75;;;11.60;72.50;;;;;;5114769;28;20039;-44
2021/04/10 04:43:19;;;;;;;1.15;0.75;;;11.60;72.50;;;;;;5114006;28;20042;-43
2021/04/10 04:45:45;;;;;;;1.45;0.63;;;11.60;72.50;;;;;;5114081;28;20093;-44
2021/04/10 04:48:11;;;;;;;0.93;0.60;;;11.60;72.50;;;;;;5113478;28;20039;-38
2021/04/10 04:50:36;;;;;;;1.45;0.98;;;11.60;72.50;;;;;;5113327;28;20039;-45
2021/04/10 04:53:02;;;;;;;1.63;0.90;;;11.60;72.50;;;;;;5114507;28;20043;-42
2021/04/10 04:55:28;;;;;;;0.50;0.50;;;11.60;72.50;;;;;;5114554;28;20063;-42
2021/04/10 04:57:53;;;;;;;0.50;0.50;;;11.60;72.50;;;;;;5114265;28;20508;-41
2021/04/10 05:00:20;;;;;;;1.35;0.70;;;11.60;72.50;;;;;;5114495;28;20044;-47
2021/04/10 05:02:45;;;;;;;1.42;0.70;;;11.60;72.50;;;;;;5114510;28;20040;-43
2021/04/10 05:05:12;;;;;;;0.70;0.50;;;11.60;72.50;;;;;;5114319;28;20485;-43
2021/04/10 05:07:37;;;;;;;1.77;0.80;;;11.60;72.50;;;;;;5114226;28;20120;-47
2021/04/10 05:10:03;;;;;;;1.48;0.73;;;11.60;72.50;;;;;;5114109;28;20480;-41
2021/04/10 05:12:30;;;;;;;1.30;0.80;;;11.60;72.50;;;;;;5112083;28;20369;-42
2021/04/10 05:14:55;;;;;;;0.88;0.80;;;11.60;72.50;;;;;;5114222;28;20051;-43
2021/04/10 05:17:21;;;;;;;0.82;0.70;;;11.60;72.50;;;;;;5114314;28;20065;-43
2021/04/10 05:19:46;;;;;;;1.20;0.70;;;11.60;72.50;;;;;;5113747;28;20043;-42
2021/04/10 05:22:12;;;;;;;0.85;0.73;;;11.60;72.50;;;;;;5113841;28;20455;-42
2021/04/10 05:24:38;;;;;;;1.60;0.80;;;11.60;72.50;;;;;;5114389;28;20047;-43
2021/04/10 05:27:04;;;;;;;2.72;0.98;;;11.60;72.50;;;;;;5114531;28;20158;-41
2021/04/10 05:29:29;;;;;;;0.50;0.45;;;11.60;72.40;;;;;;5114094;28;20039;-43
2021/04/10 05:31:55;;;;;;;0.75;0.70;;;11.60;72.40;;;;;;5113064;28;20044;-42
2021/04/10 05:34:21;;;;;;;0.98;0.77;;;11.60;72.50;;;;;;5114634;28;20484;-41
2021/04/10 05:36:46;;;;;;;1.58;0.88;;;11.60;72.40;;;;;;5113809;28;20085;-42
2021/04/10 05:39:12;;;;;;;1.77;1.00;;;11.60;72.40;;;;;;5113789;28;20051;-42
2021/04/10 05:41:38;;;;;;;0.63;0.50;;;11.60;72.40;;;;;;5114500;28;20043;-44
2021/04/10 05:44:04;;;;;;;1.60;0.85;;;11.60;72.40;;;;;;5114481;28;20051;-45
2021/04/10 05:46:30;;;;;;;1.75;0.70;;;11.60;72.40;;;;;;5114177;28;20058;-42
2021/04/10 05:48:55;;;;;;;1.23;0.63;;;11.60;72.40;;;;;;5112883;28;20446;-42
2021/04/10 05:51:21;;;;;;;1.00;0.90;;;11.50;72.30;;;;;;5112668;28;20050;-41
2021/04/10 05:53:47;;;;;;;1.58;0.70;;;11.60;73.10;;;;;;5113082;28;20044;-41
2021/04/10 05:56:12;;;;;;;0.63;0.63;;;11.60;72.40;;;;;;5113237;28;20081;-41
2021/04/10 05:58:38;;;;;;;1.52;1.02;;;11.60;72.40;;;;;;5113089;28;20104;-38
2021/04/10 06:01:04;;;;;;;2.03;1.05;;;11.60;72.40;;;;;;5113276;28;20044;-39
2021/04/10 06:03:30;;;;;;;1.20;0.82;;;11.60;72.40;;;;;;5113712;28;20052;-39
2021/04/10 06:05:56;;;;;;;1.00;0.70;;;11.50;72.30;;;;;;5113243;27;20040;-38
2021/04/10 06:08:21;;;;;;;4.35;1.00;;;11.50;72.30;;;;;;5113029;28;20411;-39
2021/04/10 06:10:47;;;;;;;2.17;0.80;;;11.50;72.30;;;;;;5113338;28;20067;-39
2021/04/10 06:13:15;;;;;;;1.30;0.60;;;11.50;72.30;;;;;;5113412;28;20039;-39
2021/04/10 06:15:40;;;;;;;2.10;0.77;;;11.60;72.40;;;;;;5113310;27;20039;-37
2021/04/10 06:18:06;;;;;;;0.77;0.77;;;11.50;72.30;;;;;;5113226;28;20038;-41
2021/04/10 06:20:32;;;;;;;2.00;1.05;;;11.50;72.30;;;;;;5113903;28;20055;-42
2021/04/10 06:22:58;;;;;;;2.65;0.70;;;11.50;72.30;;;;;;5113174;28;20488;-39
2021/04/10 06:25:24;;;;;;;2.47;0.70;;;11.50;72.30;;;;;;5112993;28;20074;-40
2021/04/10 06:27:50;;;;;;;1.13;0.65;;;11.60;72.40;;;;;;5113576;28;20130;-39
2021/04/10 06:30:16;;;;;;;3.03;1.02;;;11.50;72.30;;;;;;5113796;28;20059;-41
2021/04/10 06:32:41;;;;;;;0.98;0.50;;;11.50;72.30;;;;;;5113497;28;20495;-43
2021/04/10 06:35:07;;;;;;;1.63;0.60;;;11.50;72.30;;;;;;5113263;28;20051;-39
2021/04/10 06:37:35;;;;;;;0.52;0.52;;;11.50;72.30;;;;;;5113649;28;20054;-39
2021/04/10 06:40:01;;;;;;;1.23;0.75;;;11.50;72.30;;;;;;5112871;28;20487;-42
2021/04/10 06:42:27;;;;;;;1.73;0.70;;;11.50;72.30;;;;;;5113608;28;20051;-41
2021/04/10 06:44:56;;;;;;;0.90;0.77;;;11.50;72.30;;;;;;5113343;28;20074;-52
2021/04/10 06:47:23;;;;;;;0.68;0.57;;;11.50;72.30;;;;;;5113031;28;20446;-42
2021/04/10 06:49:52;;;;;;;0.90;0.80;;;11.50;72.30;;;;;;5113335;28;20067;-49
2021/04/10 06:52:19;;;;;;;1.17;0.73;;;11.60;72.30;;;;;;5113445;28;20039;-41
2021/04/10 06:55:09;;;;;;;1.13;0.70;;;11.50;72.30;;;;;;5112231;28;20060;-40
2021/04/10 06:58:04;;;;;;;0.52;0.50;;;11.50;72.20;;;;;;5110413;28;20039;-48
2021/04/10 07:00:31;;;;;;;0.77;0.70;;;11.50;72.20;;;;;;5105116;28;20051;-47
2021/04/10 07:02:59;;;;;;;11.23;1.83;;;11.50;72.30;;;;;;5112679;28;20051;-57
2021/04/10 07:05:25;;;;;;;6.88;1.48;;;11.50;71.30;;;;;;5112840;28;20044;-47
2021/04/10 07:07:51;;;;;;;4.38;1.42;;;11.40;71.30;;;;;;5112592;28;20039;-51
2021/04/10 07:10:18;;;;;;;3.58;1.30;;;11.40;71.20;;;;;;5112488;28;20185;-51
2021/04/10 07:12:44;;;;;;;8.35;1.80;;;11.40;71.10;;;;;;5113156;28;20051;-52
2021/04/10 07:15:13;;;;;;;5.70;1.63;;;11.40;71.10;;;;;;5112975;28;20070;-48
2021/04/10 07:17:39;;;;;;;3.70;1.35;;;11.40;71.00;;;;;;5113053;28;20442;-39
2021/04/10 07:20:31;;;;;;;2.38;1.08;;;11.40;71.10;;;;;;5112889;28;20044;-51
2021/04/10 07:22:59;;;;;;;4.10;1.08;;;11.40;71.00;;;;;;5112984;28;20068;-47
2021/04/10 07:25:26;;;;;;;3.55;1.20;;;11.40;71.10;;;;;;5111287;28;20044;-48
2021/04/10 07:27:53;;;;;;;1.83;0.85;;;11.40;71.10;;;;;;5111179;28;20526;-47
2021/04/10 07:30:20;;;;;;;3.83;1.45;;;11.40;71.10;;;;;;5112806;28;20119;-48
2021/04/10 07:32:45;;;;;;;2.15;1.00;;;11.40;71.20;;;;;;5113030;28;20040;-48
2021/04/10 07:35:13;;;;;;;5.13;1.67;;;11.40;71.20;;;;;;5113167;28;20043;-48
2021/04/10 07:37:48;;;;;;;4.35;1.17;;;11.40;71.30;;;;;;5117013;28;20063;-46
2021/04/10 07:40:23;;;;;;;2.75;1.20;;;11.40;71.30;;;;;;5116358;28;20171;-48
2021/04/10 07:42:49;;;;;;;1.47;0.67;;;11.40;71.30;;;;;;5116604;28;20050;-50
2021/04/10 07:45:20;;;;;;;1.45;0.93;;;11.40;71.30;;;;;;5116626;28;20047;-48
2021/04/10 07:47:46;;;;;;;1.77;1.05;;;11.40;71.40;;;;;;5116476;28;20065;-54
2021/04/10 07:50:20;;;;;;;1.90;0.93;;;11.40;71.40;;;;;;5116513;28;20043;-59
2021/04/10 07:52:46;;;;;;;3.55;0.88;;;11.40;71.40;;;;;;5116812;28;20044;-58
2021/04/10 07:55:40;;;;;;;2.55;0.95;;;11.40;71.50;;;;;;5115855;28;20502;-57
2021/04/10 07:58:27;;;;;;;2.65;1.20;;;11.50;71.50;;;;;;5116409;28;20055;-44
2021/04/10 08:01:05;;;;;;;2.25;1.10;;;11.50;71.50;;;;;;5116328;28;20048;-41
2021/04/10 08:03:35;;;;;;;2.95;0.90;;;11.50;71.50;;;;;;5116140;28;20120;-59
2021/04/10 08:06:06;;;;;;;1.55;0.98;;;11.50;71.60;;;;;;5116311;28;20050;-42
2021/04/10 08:08:52;;;;;;;3.33;1.00;;;11.50;71.60;;;;;;5116329;28;20142;-60
2021/04/10 08:11:29;;;;;;;2.45;0.70;;;11.50;71.60;;;;;;5115773;28;20093;-59
2021/04/10 08:14:00;;;;;;;2.05;0.98;;;11.50;71.60;;;;;;5116099;28;20044;-42
2021/04/10 08:16:29;;;;;;;2.15;1.27;;;11.50;71.60;;;;;;5115959;28;20043;-59
2021/04/10 08:18:59;;;;;;;1.15;0.68;;;11.50;71.60;;;;;;5115854;28;20069;-41
2021/04/10 08:21:31;;;;;;;3.97;1.25;;;11.50;71.60;;;;;;5115915;28;20092;-44
2021/04/10 08:24:00;;;;;;;3.20;1.08;;;11.50;71.60;;;;;;5115973;28;20040;-59
2021/04/10 08:26:28;;;;;;;0.70;0.70;;;11.50;71.60;;;;;;5115403;28;20051;-41
2021/04/10 08:28:54;;;;;;;2.17;0.65;;;11.50;71.60;;;;;;5115794;28;20047;-44
2021/04/10 08:31:20;;;;;;;2.63;1.05;;;11.50;71.60;;;;;;5115684;28;20159;-49
2021/04/10 08:33:46;;;;;;;2.78;1.10;;;11.50;71.60;;;;;;5115647;28;20039;-47
2021/04/10 08:36:13;;;;;;;2.42;1.30;;;11.50;71.60;;;;;;5115778;28;20079;-52
2021/04/10 08:38:41;;;;;;;1.98;0.85;;;11.50;71.70;;;;;;5115709;28;20039;-50
2021/04/10 08:41:09;;;;;;;2.03;0.80;;;11.50;71.60;;;;;;5115112;28;20050;-55
2021/04/10 08:43:38;;;;;;;4.75;1.17;;;11.50;71.70;;;;;;5115013;28;20537;-59
2021/04/10 08:46:06;;;;;;;1.92;0.90;;;11.50;71.70;;;;;;5108226;28;20138;-44
2021/04/10 08:48:33;;;;;;;1.58;0.70;;;11.50;71.70;;;;;;5089254;28;20408;-59
2021/04/10 08:51:02;;;;;;;1.58;0.57;;;11.50;71.70;;;;;;5089845;28;20052;-59
2021/04/10 08:53:32;;;;;;;3.35;1.83;;;11.60;71.70;;;;;;5108794;28;20055;-48
2021/04/10 08:55:58;;;;;;;0.80;0.70;;;11.60;71.70;;;;;;5113010;27;20051;-59
2021/04/10 08:58:28;;;;;;;1.15;0.80;;;11.60;71.70;;;;;;5113422;28;20092;-52
2021/04/10 09:01:00;;;;;;;1.92;1.10;;;11.60;71.70;;;;;;5114042;28;20083;-44
2021/04/10 09:03:44;;;;;;;0.88;0.60;;;11.60;71.70;;;;;;5112959;28;20048;-53
2021/04/10 09:06:11;;;;;;;1.92;0.70;;;11.60;71.70;;;;;;5113245;28;20039;-58
2021/04/10 09:08:36;;;;;;;1.33;1.05;;;11.60;71.70;;;;;;5094400;28;20073;-54
2021/04/10 09:11:04;;;;;;;2.33;0.73;;;11.60;71.70;;;;;;5094603;28;20052;-50
2021/04/10 09:13:39;;;;;;;1.05;0.77;;;11.60;71.70;;;;;;5103248;28;20051;-42
2021/04/10 09:16:20;;;;;;;1.60;0.73;;;11.70;71.70;;;;;;5115100;28;20043;-56
2021/04/10 09:19:16;;;;;;;1.17;1.08;;;11.60;71.60;;;;;;5114867;28;20043;-59
2021/04/10 09:21:44;;;;;;;1.17;0.80;;;11.60;71.70;;;;;;5051736;28;20056;-44
2021/04/10 09:24:20;;;;;;;1.83;0.90;;;11.60;71.60;;;;;;5051535;28;20598;-58
2021/04/10 09:27:03;;;;;;;1.77;1.20;;;11.60;71.60;;;;;;5051769;28;20087;-54
2021/04/10 09:29:59;;;;;;;1.73;0.75;;;11.60;71.60;;;;;;5051435;28;20515;-51
2021/04/10 09:32:27;;;;;;;2.58;1.05;;;11.70;71.70;;;;;;5050667;28;20118;-43
2021/04/10 09:34:55;;;;;;;2.15;0.90;;;11.60;71.60;;;;;;5051135;28;20053;-56
2021/04/10 09:37:21;;;;;;;2.72;0.75;;;11.70;71.60;;;;;;5051832;28;20068;-59
2021/04/10 09:40:04;;;;;;;1.73;0.73;;;11.70;71.70;;;;;;5051503;28;20051;-56
2021/04/10 09:45:05;;;;;;;0.88;0.70;;;11.70;71.60;;;;;;5050572;28;20128;-53
2021/04/10 09:47:54;;;;;;;1.40;0.85;;;11.70;71.60;;;;;;5051473;28;20045;-45
2021/04/10 09:50:24;;;;;;;1.42;0.88;;;11.70;71.60;;;;;;5051197;28;20132;-58
2021/04/10 09:53:13;;;;;;;1.70;0.80;;;11.70;71.60;;;;;;5051322;28;20529;-57
2021/04/10 09:55:41;;;;;;;1.42;0.68;;;11.70;71.60;;;;;;5045422;28;20049;-42
2021/04/10 09:58:10;;;;;;;1.23;0.55;;;11.70;71.60;;;;;;5060267;28;20051;-55
2021/04/10 10:00:38;;;;;;;0.95;0.85;;;11.70;71.60;;;;;;5107661;28;20055;-46
2021/04/10 10:03:06;;;;;;;1.95;0.73;;;11.70;71.50;;;;;;5113438;28;20066;-55
2021/04/10 10:05:35;;;;;;;1.17;0.90;;;11.70;71.50;;;;;;5112744;27;20059;-39
2021/04/10 10:08:05;;;;;;;1.38;0.70;;;11.70;71.50;;;;;;5112605;28;20108;-48
2021/04/10 10:10:52;;;;;;;1.88;0.70;;;11.70;71.60;;;;;;5113470;28;20039;-41
2021/04/10 10:13:20;;;;;;;3.17;0.90;;;11.80;71.60;;;;;;5112475;28;20062;-42
2021/04/10 10:15:48;;;;;;;1.00;0.75;;;11.80;71.60;;;;;;5113224;28;20166;-45
2021/04/10 10:18:46;;;;;;;1.60;0.75;;;11.80;71.60;;;;;;5112367;28;20499;-42
2021/04/10 10:21:15;;;;;;;1.05;0.55;;;11.80;71.50;;;;;;5049683;28;20056;-48
2021/04/10 10:24:00;;;;;;;2.17;0.80;;;11.80;71.50;;;;;;5048606;28;20063;-47
2021/04/10 10:26:33;;;;;;;1.40;0.90;;;11.80;71.50;;;;;;5050638;28;20063;-54
2021/04/10 10:29:09;;;;;;;2.58;0.80;;;11.80;71.50;;;;;;5048780;28;20044;-48
2021/04/10 10:31:43;;;;;;;1.52;0.80;;;11.80;71.50;;;;;;5049458;28;20065;-51
2021/04/10 10:34:15;;;;;;;2.17;0.55;;;11.80;71.50;;;;;;5050474;28;20148;-50
2021/04/10 10:36:42;;;;;;;1.15;0.65;;;11.90;71.50;;;;;;5050113;28;20103;-53
2021/04/10 10:39:30;;;;;;;2.38;0.80;;;11.80;71.40;;;;;;5050077;28;20055;-47
2021/04/10 10:41:57;;;;;;;2.03;0.75;;;11.80;71.40;;;;;;5049122;28;20059;-57
2021/04/10 10:44:23;;;;;;;1.55;1.00;;;11.80;71.40;;;;;;5050413;28;20076;-51
2021/04/10 10:47:07;;;;;;;2.10;0.60;;;11.80;71.40;;;;;;5047740;28;20045;-55
2021/04/10 10:49:34;;;;;;;3.33;0.80;;;11.90;71.40;;;;;;5049496;28;20063;-44
2021/04/10 10:52:00;;;;;;;0.77;0.65;;;11.80;71.40;;;;;;5048986;28;20041;-50
2021/04/10 10:54:49;;;;;;;2.00;0.80;;;12.00;71.50;;;;;;5049101;28;20195;-47
2021/04/10 10:57:18;;;;;;;0.68;0.60;;;11.90;71.40;;;;;;5071306;28;20060;-45
2021/04/10 10:59:44;;;;;;;1.83;0.70;;;11.90;71.40;;;;;;5091920;28;20059;-53
2021/04/10 11:02:17;;;;;;;1.38;0.63;;;11.90;71.40;;;;;;5105241;28;20044;-47
2021/04/10 11:04:43;;;;;;;2.65;1.13;;;11.90;71.40;;;;;;5111123;28;20054;-57
2021/04/10 11:07:09;;;;;;;2.92;1.02;;;11.90;71.40;;;;;;5111634;28;20403;-56
2021/04/10 11:09:38;;;;;;;1.70;0.70;;;11.90;71.40;;;;;;5112085;28;20046;-50
2021/04/10 11:12:11;;;;;;;3.25;0.70;;;12.00;71.40;;;;;;5114875;28;20039;-52
2021/04/10 11:14:41;;;;;;;1.95;0.60;;;11.90;71.30;;;;;;5115788;28;20075;-44
2021/04/10 11:17:08;;;;;;;2.15;0.95;;;11.90;72.00;;;;;;5115826;28;20051;-50
2021/04/10 11:19:44;;;;;;;0.80;0.65;;;11.90;71.30;;;;;;5115256;28;20039;-46
2021/04/10 11:22:15;;;;;;;1.35;0.70;;;11.90;71.30;;;;;;5115717;28;20051;-45
2021/04/10 11:24:49;;;;;;;1.27;0.70;;;11.90;71.30;;;;;;5115845;27;20407;-41
2021/04/10 11:27:25;;;;;;;1.27;0.60;;;11.90;71.30;;;;;;5115005;28;20043;-50
2021/04/10 11:30:03;;;;;;;3.38;0.85;;;11.90;71.30;;;;;;5116125;28;20044;-52
2021/04/10 11:32:39;;;;;;;0.85;0.52;;;11.90;71.20;;;;;;5115498;28;20105;-53
2021/04/10 11:35:20;;;;;;;1.13;0.68;;;11.90;71.30;;;;;;5114834;28;20445;-44
2021/04/10 11:37:47;;;;;;;1.85;0.60;;;11.90;71.20;;;;;;5116227;28;20052;-57
2021/04/10 11:40:25;;;;;;;2.58;0.70;;;12.00;71.20;;;;;;5115799;28;20449;-57
2021/04/10 11:42:53;;;;;;;1.08;0.68;;;12.00;71.20;;;;;;5114953;28;20054;-52
2021/04/10 11:45:40;;;;;;;1.95;0.60;;;12.00;71.20;;;;;;5115350;27;20073;-58
2021/04/10 11:48:20;;;;;;;0.75;0.70;;;12.00;71.20;;;;;;5114327;28;20043;-49
2021/04/10 11:51:03;;;;;;;2.75;0.73;;;12.00;71.20;;;;;;5115757;28;20491;-57
2021/04/10 11:53:37;;;;;;;1.55;0.82;;;12.00;71.20;;;;;;5115323;28;20384;-54
2021/04/10 11:56:24;;;;;;;0.90;0.60;;;12.00;71.20;;;;;;5112056;28;20051;-53
2021/04/10 11:58:59;;;;;;;1.60;0.80;;;12.00;71.20;;;;;;5105412;28;20093;-56
2021/04/10 12:01:25;;;;;;;0.93;0.68;;;12.00;71.20;;;;;;5115013;28;20093;-52
2021/04/10 12:03:54;;;;;;;0.63;0.57;;;12.00;71.20;;;;;;5114498;28;20039;-50
2021/04/10 12:06:39;;;;;;;1.50;0.80;;;12.00;71.20;;;;;;5114750;28;20399;-51
2021/04/10 12:09:07;;;;;;;1.50;0.85;;;12.00;71.20;;;;;;5114932;28;20035;-42
2021/04/10 12:11:38;;;;;;;1.27;0.93;;;12.00;71.10;;;;;;5114618;27;20140;-57
2021/04/10 12:14:14;;;;;;;2.47;0.90;;;12.00;71.10;;;;;;5115164;28;20514;-55
2021/04/10 12:16:41;;;;;;;0.85;0.60;;;12.00;71.10;;;;;;5115250;28;20043;-48
2021/04/10 12:19:07;;;;;;;1.83;0.70;;;12.00;71.10;;;;;;5114222;28;20039;-52
2021/04/10 12:21:33;;;;;;;1.83;0.75;;;12.00;71.10;;;;;;5114796;28;20078;-51
2021/04/10 12:23:59;;;;;;;0.63;0.63;;;12.00;71.10;;;;;;5114400;28;20113;-47
2021/04/10 12:26:25;;;;;;;0.80;0.63;;;12.00;71.10;;;;;;5112193;28;20511;-57
2021/04/10 12:28:51;;;;;;;0.50;0.50;;;12.00;71.10;;;;;;5108401;28;20047;-55
2021/04/10 12:31:17;;;;;;;1.73;0.57;;;12.00;71.00;;;;;;5113265;28;20055;-57
2021/04/10 12:33:44;;;;;;;1.65;0.80;;;12.00;71.00;;;;;;5113639;28;20062;-51
2021/04/10 12:36:10;;;;;;;1.27;0.60;;;12.00;71.00;;;;;;5114565;28;20043;-57
2021/04/10 12:38:36;;;;;;;1.90;0.65;;;12.00;71.00;;;;;;5114493;28;20507;-58
2021/04/10 12:41:04;;;;;;;0.50;0.50;;;12.00;71.00;;;;;;5114820;28;20078;-55
2021/04/10 12:43:29;;;;;;;2.35;0.60;;;12.10;71.10;;;;;;5114527;28;20051;-58
2021/04/10 12:45:55;;;;;;;0.60;0.50;;;12.00;71.00;;;;;;5114774;28;20036;-44
2021/04/10 12:48:21;;;;;;;2.42;0.88;;;12.10;71.10;;;;;;5114132;28;20128;-38
2021/04/10 12:50:46;;;;;;;1.73;0.52;;;12.00;71.00;;;;;;5114282;28;20051;-37
2021/04/10 12:53:12;;;;;;;2.83;0.75;;;12.10;71.00;;;;;;5114373;28;20069;-39
2021/04/10 12:55:38;;;;;;;1.35;0.60;;;12.00;71.00;;;;;;5114463;28;20058;-38
2021/04/10 12:58:04;;;;;;;3.22;0.50;;;12.10;71.00;;;;;;5114516;27;20047;-40
2021/04/10 13:00:30;;;;;;;2.55;0.73;;;12.00;71.00;;;;;;5113877;28;20051;-45
2021/04/10 13:02:56;;;;;;;1.58;0.95;;;12.10;71.00;;;;;;5114614;28;20384;-44